Dallas, Texas
Current Conditions -  °F | °C
As of 6:53 AM on Thursday 30 Oct 2014 (Local Time) from KDAL Reporting Station
Clear Clear  
Wind Chill: 14°   Ceiling: Unl
Heat Index: 14°   Visibility: 10mi
Dew Point:   Wind: 9mph
Humidity: 65%   Direction: 150°SSE
Pressure: 30.13"   Gusts: NA
Location:  32.78°N, 96.79°W
Report Text: KDAL 301153Z 15008KT 10SM CLR 14/08 A3013 RMK AO2 SLP200 T01440078 10161 20133 55000
Loading
Personal Weather Stations






























Interactive Weather Map
Tropical Storm Tracking
New forecast layout! Learn more

10-Day Weather Forecast

Advertisements
Track Severe Weather on mobile